Peter R. Cresswell — VCBZ — position and weather

sailwx.info

Track history (hours):
 
Tides and Currents Weather Stations Pressure Air Temp Water Temp Dewpoint Dewpoint Depression Visibility Wind Speed Wind Dir Waves Ship Positions

Peter R. Cresswell

ex Algowest

Last reported at 2016-Jan-04 10:26 UTC. Time now 2016-May-03 02:59 UTC.
Position N 42°37' W 079°39'.
Warning: this ship's position is months out of date.

Length 219.2 m; beam 23.2 m; draft 8.7 m.

Type: Ship. MMSI: 316001697.

Date/timePositionNaut miles runAvg speedWind from/ knotsBaromVisibWave heightAir tempDewpointWater temp
2016-Jan-04 10:26N 42°37' W 079°39'  
2015-Dec-31 07:18N 42°29' W 080°07'811.0
2015-Dec-31 06:33N 42°33' W 079°57'45 5.6
2015-Dec-30 22:30N 43°04' W 079°13'3 3.3
2015-Dec-30 21:33N 43°07' W 079°12'1 0.5
2015-Dec-30 20:32N 43°08' W 079°12'0 0.3
2015-Dec-30 19:33N 43°08' W 079°12'1 0.7
2015-Dec-30 18:32N 43°09' W 079°12'1 1.1
2015-Dec-30 17:33N 43°10' W 079°12'2 1.7
2015-Dec-30 16:33N 43°12' W 079°12'1 1.5
2015-Dec-30 15:33N 43°13' W 079°13'4 3.7
2015-Dec-30 14:33N 43°17' W 079°12'1110.4
2015-Dec-30 13:31N 43°26' W 079°04'  
2015-Dec-28 03:32N 43°28' W 079°02'1111.7
2015-Dec-28 02:33N 43°19' W 079°11'6 5.8
2015-Dec-28 01:33N 43°13' W 079°13'2 1.5
2015-Dec-28 00:33N 43°12' W 079°12'2 2.3
2015-Dec-27 23:33N 43°09' W 079°12'1 1.1
2015-Dec-27 22:33N 43°08' W 079°12'0 0.4
2015-Dec-27 21:33N 43°08' W 079°12'2 1.6
2015-Dec-27 20:30N 43°06' W 079°12'39 7.4
2015-Dec-27 15:12N 42°35' W 079°44'31 0.6
2015-Dec-25 12:12N 42°24' W 080°23'711.4
2015-Dec-25 11:33N 42°27' W 080°14'1111.3
2015-Dec-25 10:33N 42°31' W 079°60'  
Track history (hours):
 
Tides and Currents Weather Stations Pressure Air Temp Water Temp Dewpoint Dewpoint Depression Visibility Wind Speed Wind Dir Waves Ship Positions

Peter R. Cresswell

ex Algowest

Last reported at 2016-Jan-04 10:26 UTC. Time now 2016-May-03 02:59 UTC.
Position N 42°37' W 079°39'.
Warning: this ship's position is months out of date.

Length 219.2 m; beam 23.2 m; draft 8.7 m.

Type: Ship. MMSI: 316001697.

Date/timePositionNaut miles runAvg speedWind from/ knotsBaromVisibWave heightAir tempDewpointWater temp
2016-Jan-04 10:26N 42°37' W 079°39'  
2015-Dec-31 07:18N 42°29' W 080°07'811.0
2015-Dec-31 06:33N 42°33' W 079°57'45 5.6
2015-Dec-30 22:30N 43°04' W 079°13'3 3.3
2015-Dec-30 21:33N 43°07' W 079°12'1 0.5
2015-Dec-30 20:32N 43°08' W 079°12'0 0.3
2015-Dec-30 19:33N 43°08' W 079°12'1 0.7
2015-Dec-30 18:32N 43°09' W 079°12'1 1.1
2015-Dec-30 17:33N 43°10' W 079°12'2 1.7
2015-Dec-30 16:33N 43°12' W 079°12'1 1.5
2015-Dec-30 15:33N 43°13' W 079°13'4 3.7
2015-Dec-30 14:33N 43°17' W 079°12'1110.4
2015-Dec-30 13:31N 43°26' W 079°04'  
2015-Dec-28 03:32N 43°28' W 079°02'1111.7
2015-Dec-28 02:33N 43°19' W 079°11'6 5.8
2015-Dec-28 01:33N 43°13' W 079°13'2 1.5
2015-Dec-28 00:33N 43°12' W 079°12'2 2.3
2015-Dec-27 23:33N 43°09' W 079°12'1 1.1
2015-Dec-27 22:33N 43°08' W 079°12'0 0.4
2015-Dec-27 21:33N 43°08' W 079°12'2 1.6
2015-Dec-27 20:30N 43°06' W 079°12'39 7.4
2015-Dec-27 15:12N 42°35' W 079°44'31 0.6
2015-Dec-25 12:12N 42°24' W 080°23'711.4
2015-Dec-25 11:33N 42°27' W 080°14'1111.3
2015-Dec-25 10:33N 42°31' W 079°60'  

Dump ship's entire track history